createdAt,value
2023-02-15T00:01:44.462Z,8.44
2023-02-15T00:04:13.941Z,8.22
2023-02-15T00:06:40.545Z,8.35
2023-02-15T00:09:06.970Z,7.68
2023-02-15T00:11:52.000Z,8.19
2023-02-15T00:14:21.537Z,8.23
2023-02-15T00:16:49.670Z,8.17
2023-02-15T00:19:20.797Z,7.88
2023-02-15T00:21:48.598Z,8.11
2023-02-15T00:24:17.249Z,7.96
2023-02-15T00:26:44.389Z,8.13
2023-02-15T00:29:12.109Z,8.28
2023-02-15T00:31:39.120Z,8.29
2023-02-15T00:34:13.433Z,8.28
2023-02-15T00:36:40.066Z,7.92
2023-02-15T00:39:06.626Z,8.25
2023-02-15T00:41:33.669Z,8.08
2023-02-15T00:44:00.798Z,8.24
2023-02-15T00:46:27.501Z,8.13
2023-02-15T00:48:53.881Z,7.99
2023-02-15T00:51:21.302Z,8.06
2023-02-15T00:53:48.024Z,8.14
2023-02-15T00:56:14.401Z,7.92
2023-02-15T00:58:40.776Z,7.89
2023-02-15T01:01:11.182Z,7.95
2023-02-15T01:03:38.082Z,7.84
2023-02-15T01:06:05.612Z,7.65
2023-02-15T01:08:32.337Z,7.60
2023-02-15T01:11:04.331Z,7.55
2023-02-15T01:13:30.645Z,7.52
2023-02-15T01:15:57.027Z,7.35
2023-02-15T01:18:23.451Z,7.48
2023-02-15T01:20:50.423Z,7.43
2023-02-15T01:23:16.838Z,7.42
2023-02-15T01:25:43.303Z,7.43
2023-02-15T01:28:09.811Z,7.54
2023-02-15T01:30:36.528Z,7.59
2023-02-15T01:33:03.097Z,7.51
2023-02-15T01:35:29.844Z,7.40
2023-02-15T01:37:57.215Z,7.35
2023-02-15T01:40:24.713Z,7.55
2023-02-15T01:42:53.238Z,7.42
2023-02-15T01:45:26.185Z,7.31
2023-02-15T01:47:59.353Z,7.51
2023-02-15T01:50:33.113Z,7.09
2023-02-15T01:53:10.063Z,7.67
2023-02-15T01:55:47.793Z,7.56
2023-02-15T01:58:15.091Z,7.50
2023-02-15T02:00:41.587Z,7.55
2023-02-15T02:03:08.142Z,7.51
2023-02-15T02:05:34.732Z,7.67
2023-02-15T02:08:02.416Z,7.03
2023-02-15T02:10:29.742Z,7.55
2023-02-15T02:13:00.668Z,7.68
2023-02-15T02:15:42.256Z,7.57
2023-02-15T02:18:36.784Z,7.62
2023-02-15T02:21:39.772Z,7.71
2023-02-15T02:24:40.211Z,7.61
2023-02-15T02:27:15.542Z,7.58
2023-02-15T02:30:06.932Z,7.57
2023-02-15T02:32:54.620Z,7.64
2023-02-15T02:35:27.195Z,7.62
2023-02-15T02:38:27.775Z,7.61
2023-02-15T02:41:26.723Z,7.43
2023-02-15T02:44:05.716Z,7.48
2023-02-15T02:46:47.157Z,7.31
2023-02-15T02:49:13.629Z,7.34
2023-02-15T02:51:40.064Z,7.22
2023-02-15T02:54:08.347Z,6.30
2023-02-15T02:56:40.366Z,7.22
2023-02-15T02:59:10.350Z,7.24
2023-02-15T03:01:44.240Z,7.23
2023-02-15T03:04:21.515Z,6.88
2023-02-15T03:06:57.463Z,7.21
2023-02-15T03:09:43.994Z,7.22
2023-02-15T03:12:14.471Z,7.41
2023-02-15T03:14:44.153Z,7.34
2023-02-15T03:17:13.190Z,7.36
2023-02-15T03:19:40.028Z,7.24
2023-02-15T03:22:23.754Z,7.45
2023-02-15T03:24:57.102Z,7.23
2023-02-15T03:27:27.593Z,6.50
2023-02-15T03:29:58.370Z,7.08
2023-02-15T03:32:29.381Z,7.25
2023-02-15T03:34:56.599Z,7.20
2023-02-15T03:37:36.810Z,6.91
2023-02-15T03:40:26.346Z,7.19
2023-02-15T03:43:05.855Z,7.11
2023-02-15T03:45:36.962Z,7.10
2023-02-15T03:48:07.347Z,7.01
2023-02-15T03:50:56.959Z,7.10
2023-02-15T03:53:25.485Z,6.82
2023-02-15T03:55:55.191Z,6.17
2023-02-15T03:58:40.141Z,7.24
2023-02-15T04:01:38.612Z,7.19
2023-02-15T04:04:16.304Z,6.93
2023-02-15T04:06:42.638Z,6.86
2023-02-15T04:09:27.648Z,6.78
2023-02-15T04:11:54.005Z,6.44
2023-02-15T04:14:40.731Z,6.75
2023-02-15T04:17:08.691Z,6.60
2023-02-15T04:19:53.724Z,6.48
2023-02-15T04:22:38.428Z,6.87
2023-02-15T04:25:14.054Z,6.83
2023-02-15T04:27:43.331Z,7.09
2023-02-15T04:30:11.566Z,6.84
2023-02-15T04:32:38.472Z,6.89
2023-02-15T04:35:06.309Z,6.85
2023-02-15T04:37:33.401Z,6.79
2023-02-15T04:39:59.899Z,6.16
2023-02-15T04:42:27.093Z,6.66
2023-02-15T04:44:54.034Z,6.31
2023-02-15T04:47:20.528Z,6.38
2023-02-15T04:49:47.167Z,6.53
2023-02-15T04:52:13.991Z,6.39
2023-02-15T04:54:40.428Z,5.59
2023-02-15T04:57:07.227Z,6.23
2023-02-15T04:59:33.756Z,6.48
2023-02-15T05:02:00.168Z,5.86
2023-02-15T05:07:21.300Z,6.56
2023-02-15T05:09:47.695Z,6.63
2023-02-15T05:12:14.052Z,6.19
2023-02-15T05:14:40.491Z,5.77
2023-02-15T05:17:07.180Z,6.33
2023-02-15T05:19:33.592Z,5.81
2023-02-15T05:22:00.334Z,6.16
2023-02-15T05:24:45.452Z,6.20
2023-02-15T05:27:31.733Z,6.17
2023-02-15T05:29:58.420Z,6.59
2023-02-15T05:32:27.163Z,6.14
2023-02-15T05:34:58.525Z,6.66
2023-02-15T05:37:25.353Z,5.54
2023-02-15T05:39:51.668Z,6.51
2023-02-15T05:42:18.048Z,6.70
2023-02-15T05:44:44.379Z,6.48
2023-02-15T05:47:10.778Z,6.22
2023-02-15T05:49:37.169Z,5.74
2023-02-15T05:52:04.167Z,5.96
2023-02-15T05:54:30.619Z,6.54
2023-02-15T05:56:57.300Z,6.53
2023-02-15T05:59:23.890Z,6.23
2023-02-15T06:01:50.265Z,6.25
2023-02-15T06:04:16.623Z,6.25
2023-02-15T06:06:43.100Z,6.44
2023-02-15T06:09:12.004Z,6.25
2023-02-15T06:11:38.436Z,6.52
2023-02-15T06:14:04.940Z,6.39
2023-02-15T06:16:31.462Z,6.22
2023-02-15T06:18:59.909Z,6.51
2023-02-15T06:21:26.589Z,5.89
2023-02-15T06:23:52.987Z,6.23
2023-02-15T06:26:19.352Z,6.36
2023-02-15T06:28:45.698Z,6.30
2023-02-15T06:31:12.131Z,6.27
2023-02-15T06:33:39.197Z,6.30
2023-02-15T06:36:05.871Z,6.45
2023-02-15T06:38:32.308Z,6.23
2023-02-15T06:40:58.847Z,5.74
2023-02-15T06:43:25.253Z,6.39
2023-02-15T06:45:51.621Z,6.05
2023-02-15T06:48:17.968Z,5.92
2023-02-15T06:50:44.308Z,6.08
2023-02-15T06:53:10.637Z,6.12
2023-02-15T06:55:37.406Z,6.23
2023-02-15T06:58:03.833Z,6.31
2023-02-15T07:00:30.263Z,6.35
2023-02-15T07:02:58.766Z,5.55
2023-02-15T07:05:26.105Z,6.28
2023-02-15T07:07:52.455Z,6.09
2023-02-15T07:10:18.939Z,6.22
2023-02-15T07:12:46.534Z,6.02
2023-02-15T07:15:15.995Z,6.28
2023-02-15T07:17:42.469Z,5.62
2023-02-15T07:20:12.825Z,6.29
2023-02-15T07:22:39.231Z,6.17
2023-02-15T07:25:07.454Z,6.39
2023-02-15T07:27:33.968Z,6.09
2023-02-15T07:30:01.421Z,5.68
2023-02-15T07:32:30.380Z,6.45
2023-02-15T07:34:56.906Z,5.84
2023-02-15T07:37:23.591Z,6.28
2023-02-15T07:39:50.040Z,6.17
2023-02-15T07:42:16.609Z,6.35
2023-02-15T07:44:43.115Z,6.35
2023-02-15T07:47:09.435Z,5.74
2023-02-15T07:49:35.869Z,6.46
2023-02-15T07:52:02.754Z,6.59
2023-02-15T07:54:29.197Z,6.33
2023-02-15T07:56:55.634Z,6.49
2023-02-15T07:59:22.007Z,6.69
2023-02-15T08:01:48.504Z,5.94
2023-02-15T08:04:14.946Z,5.99
2023-02-15T08:06:41.412Z,6.61
2023-02-15T08:09:09.565Z,6.53
2023-02-15T08:11:37.788Z,6.68
2023-02-15T08:14:08.838Z,6.85
2023-02-15T08:16:41.215Z,6.92
2023-02-15T08:19:18.475Z,6.93
2023-02-15T08:22:00.955Z,6.01
2023-02-15T08:24:32.677Z,6.72
2023-02-15T08:26:59.495Z,6.85
2023-02-15T08:29:28.192Z,6.43
2023-02-15T08:32:06.014Z,6.91
2023-02-15T08:34:37.001Z,6.37
2023-02-15T08:37:03.931Z,6.54
2023-02-15T08:39:30.424Z,7.08
2023-02-15T08:41:56.780Z,7.16
2023-02-15T08:44:23.476Z,6.51
2023-02-15T08:46:50.458Z,7.15
2023-02-15T08:49:20.687Z,7.22
2023-02-15T08:51:48.309Z,7.04
2023-02-15T08:54:17.331Z,7.41
2023-02-15T08:56:45.286Z,7.44
2023-02-15T08:59:19.954Z,7.19
2023-02-15T09:01:49.389Z,6.80
2023-02-15T09:04:16.693Z,7.22
2023-02-15T09:06:47.967Z,7.68
2023-02-15T09:09:15.403Z,7.73
2023-02-15T09:11:44.256Z,7.70
2023-02-15T09:14:16.499Z,7.92
2023-02-15T09:16:49.854Z,7.90
2023-02-15T09:19:18.338Z,7.74
2023-02-15T09:21:44.700Z,7.82
2023-02-15T09:24:14.582Z,8.10
2023-02-15T09:26:43.625Z,7.68
2023-02-15T09:29:11.528Z,8.30
2023-02-15T09:31:42.424Z,8.30
2023-02-15T09:34:08.884Z,8.31
2023-02-15T09:36:37.922Z,8.58
2023-02-15T09:39:17.474Z,8.63
2023-02-15T09:41:52.848Z,8.75
2023-02-15T09:44:28.270Z,8.84
2023-02-15T09:47:10.946Z,8.71
2023-02-15T09:49:58.572Z,8.38
2023-02-15T09:52:48.866Z,9.12
2023-02-15T09:55:18.341Z,9.13
2023-02-15T09:58:18.345Z,8.28
2023-02-15T10:01:13.645Z,9.32
2023-02-15T10:04:14.159Z,9.38
2023-02-15T10:07:02.567Z,9.47
2023-02-15T10:09:35.037Z,9.72
2023-02-15T10:12:23.085Z,9.87
2023-02-15T10:15:05.716Z,9.89
2023-02-15T10:17:42.894Z,9.88
2023-02-15T10:20:40.261Z,9.90
2023-02-15T10:23:19.649Z,10.27
2023-02-15T10:26:05.089Z,10.37
2023-02-15T10:28:49.582Z,10.26
2023-02-15T10:31:25.214Z,10.61
2023-02-15T10:33:59.483Z,10.69
2023-02-15T10:36:25.780Z,10.97
2023-02-15T10:39:18.193Z,11.01
2023-02-15T10:42:16.865Z,12.26
2023-02-15T10:45:03.108Z,13.91
2023-02-15T10:47:46.997Z,15.25
2023-02-15T10:50:52.707Z,16.48
2023-02-15T10:53:58.586Z,16.95
2023-02-15T10:56:29.300Z,17.18
2023-02-15T10:59:17.012Z,17.37
2023-02-15T11:02:00.555Z,17.39
2023-02-15T11:04:39.431Z,18.10
2023-02-15T11:07:24.652Z,18.36
2023-02-15T11:10:30.125Z,18.57
2023-02-15T11:13:04.589Z,18.44
2023-02-15T11:15:44.389Z,19.45
2023-02-15T11:18:17.142Z,19.23
2023-02-15T11:20:55.399Z,18.97
2023-02-15T11:23:22.374Z,19.54
2023-02-15T11:25:57.103Z,19.21
2023-02-15T11:28:38.109Z,18.76
2023-02-15T11:31:16.770Z,18.62
2023-02-15T11:33:48.973Z,18.47
2023-02-15T11:36:21.224Z,18.24
2023-02-15T11:38:52.060Z,17.99
2023-02-15T11:41:22.739Z,19.18
2023-02-15T11:43:57.458Z,18.49
2023-02-15T11:46:24.098Z,19.08
2023-02-15T11:48:50.683Z,18.80
2023-02-15T11:51:21.577Z,18.98
2023-02-15T11:53:50.010Z,18.95
2023-02-15T11:56:19.562Z,18.42
2023-02-15T11:58:52.472Z,19.64
2023-02-15T12:01:33.097Z,19.57
2023-02-15T12:04:06.292Z,19.95
2023-02-15T12:06:47.533Z,19.99
2023-02-15T12:09:37.046Z,20.32
2023-02-15T12:12:29.824Z,20.37
2023-02-15T12:14:58.574Z,19.65
2023-02-15T12:17:32.083Z,19.93
2023-02-15T12:20:07.672Z,19.68
2023-02-15T12:22:37.709Z,20.05
2023-02-15T12:25:30.543Z,20.06
2023-02-15T12:27:57.227Z,19.98
2023-02-15T12:30:32.616Z,19.91
2023-02-15T12:33:11.272Z,20.19
2023-02-15T12:35:38.728Z,20.10
2023-02-15T12:38:11.300Z,20.05
2023-02-15T12:40:40.999Z,19.06
2023-02-15T12:43:27.022Z,19.92
2023-02-15T12:45:53.526Z,20.35
2023-02-15T12:48:21.516Z,20.58
2023-02-15T12:50:54.696Z,20.30
2023-02-15T12:53:37.467Z,20.70
2023-02-15T12:56:09.841Z,20.31
2023-02-15T12:58:41.519Z,20.32
2023-02-15T13:01:23.103Z,20.43
2023-02-15T13:04:04.190Z,20.61
2023-02-15T13:06:35.591Z,20.75
2023-02-15T13:09:19.164Z,20.99
2023-02-15T13:11:46.785Z,21.12
2023-02-15T13:14:16.133Z,21.13
2023-02-15T13:16:45.278Z,19.86
2023-02-15T13:19:17.270Z,20.20
2023-02-15T13:21:53.426Z,20.44
2023-02-15T13:24:31.493Z,19.00
2023-02-15T13:27:14.084Z,19.71
2023-02-15T13:29:45.283Z,18.83
2023-02-15T13:32:28.123Z,19.09
2023-02-15T13:35:00.194Z,18.69
2023-02-15T13:37:34.745Z,18.21
2023-02-15T13:40:19.317Z,17.68
2023-02-15T13:42:57.064Z,17.36
2023-02-15T13:45:40.564Z,17.02
2023-02-15T13:48:36.944Z,16.96
2023-02-15T13:51:36.969Z,16.80
2023-02-15T13:54:30.830Z,16.86
2023-02-15T13:57:16.708Z,16.89
2023-02-15T13:59:54.709Z,16.82
2023-02-15T14:02:59.471Z,16.64
2023-02-15T14:05:47.555Z,16.73
2023-02-15T14:08:38.298Z,16.78
2023-02-15T14:11:43.874Z,16.74
2023-02-15T14:14:32.934Z,16.77
2023-02-15T14:17:28.018Z,16.70
2023-02-15T14:20:10.601Z,16.80
2023-02-15T14:22:45.240Z,16.68
2023-02-15T14:25:22.936Z,16.92
2023-02-15T14:28:05.367Z,16.93
2023-02-15T14:30:35.728Z,16.96
2023-02-15T14:33:08.478Z,16.32
2023-02-15T14:35:36.378Z,16.31
2023-02-15T14:38:18.128Z,16.95
2023-02-15T14:41:03.599Z,17.03
2023-02-15T14:44:01.265Z,16.23
2023-02-15T14:46:49.511Z,16.98
2023-02-15T14:49:24.116Z,16.99
2023-02-15T14:51:51.060Z,17.03
2023-02-15T14:54:17.871Z,17.07
2023-02-15T14:56:45.304Z,15.96
2023-02-15T14:59:22.192Z,16.93
2023-02-15T15:01:58.702Z,16.90
2023-02-15T15:04:35.429Z,16.98
2023-02-15T15:07:23.564Z,17.12
2023-02-15T15:10:01.591Z,16.19
2023-02-15T15:12:38.989Z,16.99
2023-02-15T15:15:06.302Z,16.00
2023-02-15T15:17:32.666Z,16.83
2023-02-15T15:20:08.288Z,16.29
2023-02-15T15:22:36.857Z,16.90
2023-02-15T15:25:12.350Z,16.63
2023-02-15T15:27:39.810Z,16.73
2023-02-15T15:30:15.691Z,16.70
2023-02-15T15:32:56.040Z,16.57
2023-02-15T15:35:45.923Z,16.59
2023-02-15T15:38:50.050Z,16.60
2023-02-15T15:41:44.391Z,16.47
2023-02-15T15:44:49.812Z,16.45
2023-02-15T15:47:24.715Z,16.35
2023-02-15T15:49:57.168Z,16.18
2023-02-15T15:52:23.713Z,15.45
2023-02-15T15:54:57.555Z,15.43
2023-02-15T15:57:30.940Z,16.00
2023-02-15T16:00:00.554Z,16.01
2023-02-15T16:02:27.095Z,15.35
2023-02-15T16:04:53.644Z,15.81
2023-02-15T16:07:20.267Z,15.96
2023-02-15T16:10:07.647Z,15.67
2023-02-15T16:12:36.841Z,15.62
2023-02-15T16:15:14.848Z,15.50
2023-02-15T16:17:43.778Z,14.70
2023-02-15T16:20:19.769Z,15.41
2023-02-15T16:23:06.325Z,15.42
2023-02-15T16:25:51.676Z,14.82
2023-02-15T16:28:19.585Z,15.03
2023-02-15T16:30:46.138Z,15.09
2023-02-15T16:33:17.945Z,15.09
2023-02-15T16:35:59.331Z,14.82
2023-02-15T16:38:44.728Z,14.89
2023-02-15T16:41:13.764Z,14.37
2023-02-15T16:43:42.852Z,14.80
2023-02-15T16:46:21.688Z,14.79
2023-02-15T16:48:55.082Z,14.64
2023-02-15T16:51:26.484Z,14.66
2023-02-15T16:53:56.507Z,14.74
2023-02-15T16:56:33.716Z,13.98
2023-02-15T16:59:12.846Z,14.46
2023-02-15T17:01:39.283Z,14.00
2023-02-15T17:04:27.592Z,14.06
2023-02-15T17:07:00.264Z,14.14
2023-02-15T17:09:27.693Z,13.23
2023-02-15T17:11:54.406Z,13.43
2023-02-15T17:14:27.458Z,13.65
2023-02-15T17:16:59.779Z,13.62
2023-02-15T17:19:41.270Z,13.52
2023-02-15T17:22:07.764Z,13.38
2023-02-15T17:24:41.074Z,13.28
2023-02-15T17:27:22.045Z,13.25
2023-02-15T17:29:53.085Z,12.91
2023-02-15T17:32:23.764Z,13.36
2023-02-15T17:35:00.065Z,13.46
2023-02-15T17:37:37.242Z,13.47
2023-02-15T17:40:29.319Z,13.47
2023-02-15T17:42:56.121Z,12.96
2023-02-15T17:45:25.810Z,13.19
2023-02-15T17:47:52.532Z,13.08
2023-02-15T17:50:27.390Z,13.10
2023-02-15T17:52:56.044Z,12.83
2023-02-15T17:55:36.604Z,12.67
2023-02-15T17:58:06.924Z,12.79
2023-02-15T18:00:56.210Z,12.03
2023-02-15T18:03:41.496Z,12.86
2023-02-15T18:06:26.599Z,13.02
2023-02-15T18:09:12.675Z,12.98
2023-02-15T18:11:39.322Z,12.96
2023-02-15T18:14:11.099Z,12.87
2023-02-15T18:16:44.270Z,12.93
2023-02-15T18:19:18.585Z,12.94
2023-02-15T18:21:45.767Z,13.07
2023-02-15T18:24:24.290Z,12.87
2023-02-15T18:26:52.390Z,12.81
2023-02-15T18:29:18.845Z,12.47
2023-02-15T18:31:49.906Z,12.53
2023-02-15T18:34:29.806Z,12.48
2023-02-15T18:36:57.806Z,12.27
2023-02-15T18:39:30.572Z,12.48
2023-02-15T18:41:57.376Z,12.44
2023-02-15T18:44:23.737Z,12.31
2023-02-15T18:46:50.142Z,12.34
2023-02-15T18:49:16.527Z,12.19
2023-02-15T18:51:43.276Z,12.05
2023-02-15T18:54:24.918Z,11.95
2023-02-15T18:56:57.332Z,11.13
2023-02-15T18:59:25.168Z,11.08
2023-02-15T19:01:52.124Z,11.27
2023-02-15T19:04:18.634Z,10.94
2023-02-15T19:06:47.931Z,11.59
2023-02-15T19:09:18.314Z,11.97
2023-02-15T19:11:49.524Z,11.83
2023-02-15T19:14:34.247Z,11.37
2023-02-15T19:17:01.127Z,10.78
2023-02-15T19:19:27.831Z,11.17
2023-02-15T19:21:56.069Z,11.05
2023-02-15T19:24:36.890Z,11.09
2023-02-15T19:27:03.747Z,11.22
2023-02-15T19:29:31.177Z,11.09
2023-02-15T19:31:58.057Z,11.13
2023-02-15T19:34:24.869Z,10.94
2023-02-15T19:36:54.002Z,11.29
2023-02-15T19:39:23.295Z,11.34
2023-02-15T19:41:49.851Z,10.50
2023-02-15T19:44:17.673Z,11.14
2023-02-15T19:46:44.952Z,10.70
2023-02-15T19:49:12.170Z,11.32
2023-02-15T19:51:39.695Z,10.56
2023-02-15T19:54:25.070Z,11.01
2023-02-15T19:56:51.531Z,10.72
2023-02-15T19:59:29.967Z,11.01
2023-02-15T20:01:56.789Z,11.12
2023-02-15T20:04:24.248Z,10.61
2023-02-15T20:06:52.596Z,10.99
2023-02-15T20:09:23.822Z,10.78
2023-02-15T20:11:52.154Z,10.67
2023-02-15T20:14:19.490Z,10.49
2023-02-15T20:16:45.963Z,9.99
2023-02-15T20:19:13.142Z,10.35
2023-02-15T20:21:45.368Z,10.54
2023-02-15T20:24:17.388Z,10.12
2023-02-15T20:26:44.809Z,10.76
2023-02-15T20:29:15.741Z,10.77
2023-02-15T20:31:43.085Z,10.84
2023-02-15T20:34:09.830Z,10.95
2023-02-15T20:36:42.010Z,10.69
2023-02-15T20:39:17.253Z,10.76
2023-02-15T20:41:49.674Z,10.91
2023-02-15T20:44:26.376Z,11.10
2023-02-15T20:46:58.411Z,11.21
2023-02-15T20:49:26.481Z,11.19
2023-02-15T20:51:54.431Z,10.57
2023-02-15T20:54:27.045Z,10.87
2023-02-15T20:56:54.372Z,11.55
2023-02-15T20:59:32.293Z,10.35
2023-02-15T21:02:05.352Z,11.61
2023-02-15T21:04:33.481Z,10.69
2023-02-15T21:07:00.629Z,11.61
2023-02-15T21:09:27.198Z,11.61
2023-02-15T21:12:01.244Z,11.54
2023-02-15T21:14:28.527Z,11.30
2023-02-15T21:16:55.069Z,11.45
2023-02-15T21:19:23.592Z,10.81
2023-02-15T21:21:52.811Z,10.77
2023-02-15T21:24:24.411Z,11.34
2023-02-15T21:26:52.478Z,10.19
2023-02-15T21:29:30.278Z,11.06
2023-02-15T21:32:00.460Z,9.86
2023-02-15T21:34:26.977Z,11.11
2023-02-15T21:36:53.654Z,11.28
2023-02-15T21:39:23.395Z,11.33
2023-02-15T21:42:10.291Z,11.40
2023-02-15T21:44:55.746Z,10.83
2023-02-15T21:47:42.525Z,11.55
2023-02-15T21:50:33.399Z,11.33
2023-02-15T21:53:04.096Z,11.25
2023-02-15T21:55:31.088Z,11.50
2023-02-15T21:57:57.514Z,11.45
2023-02-15T22:00:25.440Z,11.01
2023-02-15T22:02:54.484Z,10.38
2023-02-15T22:05:26.493Z,11.36
2023-02-15T22:07:52.891Z,9.98
2023-02-15T22:10:21.056Z,11.18
2023-02-15T22:12:50.661Z,10.02
2023-02-15T22:15:22.729Z,11.32
2023-02-15T22:17:50.568Z,10.15
2023-02-15T22:20:22.573Z,11.28
2023-02-15T22:22:50.378Z,11.02
2023-02-15T22:25:19.494Z,11.07
2023-02-15T22:27:47.973Z,11.23
2023-02-15T22:30:19.734Z,11.24
2023-02-15T22:32:46.429Z,11.18
2023-02-15T22:35:23.268Z,11.18
2023-02-15T22:37:49.683Z,10.95
2023-02-15T22:40:18.784Z,11.10
2023-02-15T22:42:47.425Z,10.93
2023-02-15T22:45:20.294Z,11.07
2023-02-15T22:47:53.281Z,11.12
2023-02-15T22:50:25.354Z,11.06
2023-02-15T22:52:52.392Z,10.43
2023-02-15T22:55:21.862Z,10.99
2023-02-15T22:57:52.791Z,10.13
2023-02-15T23:00:22.516Z,10.87
2023-02-15T23:02:48.937Z,10.80
2023-02-15T23:05:33.402Z,10.77
2023-02-15T23:07:59.856Z,10.75
2023-02-15T23:10:26.662Z,10.84
2023-02-15T23:13:17.207Z,10.79
2023-02-15T23:15:45.797Z,10.64
2023-02-15T23:18:19.593Z,10.71
2023-02-15T23:20:49.787Z,10.59
2023-02-15T23:23:26.006Z,10.38
2023-02-15T23:25:52.469Z,10.38
2023-02-15T23:28:23.082Z,10.50
2023-02-15T23:30:50.230Z,10.45
2023-02-15T23:33:20.177Z,10.29
2023-02-15T23:35:46.707Z,9.28
2023-02-15T23:38:27.452Z,10.25
2023-02-15T23:41:16.561Z,10.29
2023-02-15T23:43:47.157Z,9.58
2023-02-15T23:46:21.967Z,9.94
2023-02-15T23:48:48.368Z,9.95
2023-02-15T23:51:14.899Z,10.10
2023-02-15T23:53:41.254Z,10.18
2023-02-15T23:56:12.715Z,9.99
2023-02-15T23:58:41.942Z,9.89
